Mobile Downtown Airport
KBFM : now visible

Aeroporto :











RITROVATECI SU...

 
LOGIN :

Iscrizione | Disclaimer

   EN    FR    IT 

 









Sommario :    VFR   VFR Marginale   IFR   IFR Intensivo   IFR Molto Intensivo
Visibilità : 
Base nubi : 
>= 8 km
>= 3000ft
5 / 8 km
1000 / 3000 ft
1500m / 5 km
500 / 1000 ft
800 / 1500m
200 / 500 ft
< 800m
< 200 ft
Simboli :   Temporali  Nebbia  Neve Forte  Precipitazioni Forti  Vento > 20 kt







- Altitudine del aeroporto : 26 ft


KBFM - Mobile Downtown

ULTIMO METAR :
  • 242022Z 14006KT 10SM OVC016 23/21 A3000 RMK AO2 T02330206

METARs OBSOLETI :
  • 241959Z 14007KT 10SM FEW009 BKN013 24/21 A3001 RMK AO2 T02390206
  • 241853Z 14009KT 10SM FEW013 SCT030 24/21 A3002 RMK AO2 SLP165 T02390206
  • 241753Z 14005KT 10SM FEW030 23/20 A3005 RMK AO2 SLP174 T02330200 10233 20189 58010

TAF KBFM
Valido dal 24 a 18 ore il 25 a 18 ore UTC


241725Z 2418/2518 15003KT P6SM FEW011 SCT040 BKN250
FM250600 16005KT P6SM BKN025
FM251000 15008KT 6SM BR OVC025
FM251600 17015G20KT P6SM OVC015
FIR KZHU / America del Nord



MetMap, La meteo Aeronautica in un colpo d'occhio ! - Copyright ORBIFLY Dicembre 2007 - Disclaimer

ORBIFLY MET'MAP TEAM :

Programmazione e sviluppo : Alexandra Zaïnal
Concezione e sviluppo : Baudouin d'Aumeries
Co-Programmazione e sviluppo : Marc-Olivier Méhu
Supporto tecnico e logistico : Manuel Goepfert
Aiuto per la traduzione : Arnaldo La Scala

Contatto : metmap@orbifly.com




FONTI E CREDITI :

   NOAA       Earth
Advisory